Astoria, OR

12:58 PM PDT on May 05, 2015 (GMT -0700)
Kelso-Longview | | Change Station
CLOSE
Current Station
Airport
Location: Kelso-Longview,
Elevation: 20 ft
Nearby Weather Stations

Elev 20 ft 46.12 °N, 122.90 °W | Updated 3 minutes ago

Clear
Clear
54 °F
Feels Like 54 °F
N
4
Wind Variable Wind from WNW

Today
High -- | Low -- °F
--% Chance of Precip.
Yesterday
High -- | Low -- °F
Precip. -- in
5:56 AM 8:28 PM
Full, 97% visible
Pressure 30.15 in
Visibility 10.0 miles
Clouds Few 3300 ft
Mostly Cloudy 4700 ft
Overcast 6000 ft
Dew Point 43 °F
Humidity 67%
Rainfall 0.00 in
Snow Depth Not available.
UV 3 out of 12
Pollen 2.80 out of 12
Air Quality Not available.
Flu Activity Regional
METAR KKLS 051955Z 30003KT 10SM FEW033 BKN047 OVC060 12/06 A3015 RMK AO1

More Conditions Fewer Conditions

Pressure 30.15 in
Visibility 10.0 miles
Clouds Few 3300 ft
Mostly Cloudy 4700 ft
Overcast 6000 ft
Dew Point 43 °F
Humidity 67%
Rainfall 0.00 in
Snow Depth Not available.
UV 3 out of 12
Pollen 2.80 out of 12
Air Quality Not available.
Flu Activity Regional
METAR KKLS 051955Z 30003KT 10SM FEW033 BKN047 OVC060 12/06 A3015 RMK AO1

More Conditions Fewer Conditions

10-Day Weather Forecast

Almanac

Astronomy

May. 05, 2015 Rise Set
Actual Time
Civil Twilight
Nautical Twilight
Astronomical Twilight
Moon
Length of Visible Light
Length of Day
Tomorrow will be .
, % of the Moon is Illuminated

Today's Extremes

State Highs State Lows

Community

WunderPhotos

Upload Photos

1,818,957 photos uploaded!

WunderBlogs® & News

Nearby

Air Quality

  Air Quality AQ Index Pollutant
Not available.

Snow Depth

Station Depth Elevation

Earthquake Activity

City Distance Mag. Time & Date
Minimum magnitude displayed is 2.5.

Coastal Water Temperatures

Place Temperature

Stations

Nearby Weather Stations

Station Location Temp. Windchill Dew Point Humidity Wind Precip. Elev Updated Type